sensor_id;sensor_type;location;lat;lon;timestamp;pressure;altitude;pressure_sealevel;temperature;humidity
58088;BME280;43884;49.152;8.302;2024-02-26T01:04:30;98464.06;;;10.89;58.28
58088;BME280;43884;49.152;8.302;2024-02-26T01:06:56;98461.56;;;11.91;58.30
58088;BME280;43884;49.152;8.302;2024-02-26T01:09:23;98468.38;;;11.37;59.71
58088;BME280;43884;49.152;8.302;2024-02-26T01:11:49;98461.44;;;11.29;61.29
58088;BME280;43884;49.152;8.302;2024-02-26T01:14:16;98467.63;;;11.24;62.87
58088;BME280;43884;49.152;8.302;2024-02-26T01:16:42;98462.94;;;12.10;60.84
58088;BME280;43884;49.152;8.302;2024-02-26T01:19:08;98457.97;;;12.24;61.05
58088;BME280;43884;49.152;8.302;2024-02-26T01:21:35;98459.28;;;12.22;60.31
58088;BME280;43884;49.152;8.302;2024-02-26T01:24:01;98469.19;;;11.89;61.29
58088;BME280;43884;49.152;8.302;2024-02-26T01:26:28;98468.84;;;10.99;62.96
58088;BME280;43884;49.152;8.302;2024-02-26T01:28:54;98486.00;;;11.86;63.13
58088;BME280;43884;49.152;8.302;2024-02-26T01:31:20;98482.88;;;11.77;63.17
58088;BME280;43884;49.152;8.302;2024-02-26T01:33:47;98486.09;;;11.74;63.90
58088;BME280;43884;49.152;8.302;2024-02-26T01:36:13;98501.06;;;11.08;65.50
58088;BME280;43884;49.152;8.302;2024-02-26T01:38:40;98502.78;;;11.77;65.61
58088;BME280;43884;49.152;8.302;2024-02-26T01:41:06;98490.63;;;11.16;66.41
58088;BME280;43884;49.152;8.302;2024-02-26T01:43:32;98482.06;;;11.76;64.66
58088;BME280;43884;49.152;8.302;2024-02-26T01:45:59;98497.22;;;11.03;65.51
58088;BME280;43884;49.152;8.302;2024-02-26T01:48:25;98500.22;;;11.36;65.57
58088;BME280;43884;49.152;8.302;2024-02-26T01:50:52;98495.81;;;11.18;66.12
58088;BME280;43884;49.152;8.302;2024-02-26T01:53:18;98491.50;;;11.51;64.45
58088;BME280;43884;49.152;8.302;2024-02-26T01:55:45;98494.00;;;12.09;63.86
58088;BME280;43884;49.152;8.302;2024-02-26T01:58:11;98493.59;;;11.83;63.47
58088;BME280;43884;49.152;8.302;2024-02-26T02:00:38;98506.84;;;11.11;65.78
58088;BME280;43884;49.152;8.302;2024-02-26T02:03:05;98510.84;;;11.38;67.79
58088;BME280;43884;49.152;8.302;2024-02-26T02:05:31;98492.88;;;11.71;65.64
58088;BME280;43884;49.152;8.302;2024-02-26T02:07:59;98510.13;;;11.42;67.20
58088;BME280;43884;49.152;8.302;2024-02-26T02:10:26;98518.94;;;11.67;67.07
58088;BME280;43884;49.152;8.302;2024-02-26T02:12:52;98508.38;;;11.70;66.86
58088;BME280;43884;49.152;8.302;2024-02-26T02:15:19;98522.28;;;10.94;68.96
58088;BME280;43884;49.152;8.302;2024-02-26T02:17:46;98520.59;;;11.05;69.74
58088;BME280;43884;49.152;8.302;2024-02-26T02:20:16;98503.00;;;11.41;67.97
58088;BME280;43884;49.152;8.302;2024-02-26T02:22:43;98502.56;;;11.84;68.11
58088;BME280;43884;49.152;8.302;2024-02-26T02:25:09;98511.00;;;11.65;68.61
58088;BME280;43884;49.152;8.302;2024-02-26T02:27:35;98515.47;;;11.54;67.93
58088;BME280;43884;49.152;8.302;2024-02-26T02:30:02;98506.66;;;11.64;68.56
58088;BME280;43884;49.152;8.302;2024-02-26T02:32:29;98508.63;;;11.35;69.09
58088;BME280;43884;49.152;8.302;2024-02-26T02:34:56;98520.41;;;11.40;69.11
58088;BME280;43884;49.152;8.302;2024-02-26T02:37:22;98518.53;;;11.58;69.15
58088;BME280;43884;49.152;8.302;2024-02-26T02:39:49;98512.97;;;11.19;68.95
58088;BME280;43884;49.152;8.302;2024-02-26T02:42:15;98511.59;;;10.75;68.67
58088;BME280;43884;49.152;8.302;2024-02-26T02:44:41;98512.19;;;11.69;67.26
58088;BME280;43884;49.152;8.302;2024-02-26T02:47:08;98513.81;;;11.53;68.13
58088;BME280;43884;49.152;8.302;2024-02-26T02:49:34;98521.72;;;11.21;69.16
58088;BME280;43884;49.152;8.302;2024-02-26T02:52:01;98522.31;;;11.57;67.92
58088;BME280;43884;49.152;8.302;2024-02-26T02:54:27;98526.06;;;11.22;70.26
58088;BME280;43884;49.152;8.302;2024-02-26T02:56:53;98523.00;;;11.01;70.89
58088;BME280;43884;49.152;8.302;2024-02-26T02:59:20;98513.72;;;10.85;71.58
58088;BME280;43884;49.152;8.302;2024-02-26T03:01:46;98511.66;;;11.21;71.70
58088;BME280;43884;49.152;8.302;2024-02-26T03:04:13;98504.28;;;11.05;71.69
58088;BME280;43884;49.152;8.302;2024-02-26T03:06:39;98497.88;;;10.82;71.58
58088;BME280;43884;49.152;8.302;2024-02-26T03:09:05;98500.84;;;11.26;71.33
58088;BME280;43884;49.152;8.302;2024-02-26T03:11:32;98495.50;;;11.32;70.68
58088;BME280;43884;49.152;8.302;2024-02-26T03:13:58;98486.81;;;11.00;70.58
58088;BME280;43884;49.152;8.302;2024-02-26T03:16:25;98488.44;;;10.72;72.76
58088;BME280;43884;49.152;8.302;2024-02-26T03:18:51;98489.63;;;10.35;73.90
58088;BME280;43884;49.152;8.302;2024-02-26T03:21:18;98474.22;;;10.41;74.58
58088;BME280;43884;49.152;8.302;2024-02-26T03:23:44;98475.75;;;10.61;73.88
58088;BME280;43884;49.152;8.302;2024-02-26T03:26:11;98473.41;;;10.53;73.28
58088;BME280;43884;49.152;8.302;2024-02-26T03:28:37;98473.41;;;10.53;74.19
58088;BME280;43884;49.152;8.302;2024-02-26T03:31:03;98476.69;;;9.66;76.08
58088;BME280;43884;49.152;8.302;2024-02-26T03:33:30;98482.13;;;9.78;76.88
58088;BME280;43884;49.152;8.302;2024-02-26T03:35:56;98472.09;;;9.90;77.14
58088;BME280;43884;49.152;8.302;2024-02-26T03:38:22;98464.91;;;9.60;77.70
58088;BME280;43884;49.152;8.302;2024-02-26T03:40:49;98465.81;;;9.90;77.18
58088;BME280;43884;49.152;8.302;2024-02-26T03:43:16;98448.88;;;10.23;76.37
58088;BME280;43884;49.152;8.302;2024-02-26T03:45:42;98445.19;;;9.89;76.96
58088;BME280;43884;49.152;8.302;2024-02-26T03:48:09;98437.94;;;10.06;76.12
58088;BME280;43884;49.152;8.302;2024-02-26T03:50:35;98441.03;;;9.98;77.08
58088;BME280;43884;49.152;8.302;2024-02-26T03:53:02;98439.41;;;10.38;76.28
58088;BME280;43884;49.152;8.302;2024-02-26T03:55:28;98436.94;;;10.48;74.85
58088;BME280;43884;49.152;8.302;2024-02-26T03:57:54;98437.31;;;10.69;74.84
58088;BME280;43884;49.152;8.302;2024-02-26T04:00:22;98433.63;;;10.34;75.58
58088;BME280;43884;49.152;8.302;2024-02-26T04:02:48;98427.75;;;10.26;76.16
58088;BME280;43884;49.152;8.302;2024-02-26T04:05:15;98419.97;;;10.17;75.93
58088;BME280;43884;49.152;8.302;2024-02-26T04:07:41;98422.50;;;10.36;76.14
58088;BME280;43884;49.152;8.302;2024-02-26T04:10:08;98421.66;;;10.18;76.11
58088;BME280;43884;49.152;8.302;2024-02-26T04:12:35;98422.63;;;10.41;75.92
58088;BME280;43884;49.152;8.302;2024-02-26T04:15:01;98420.25;;;10.74;74.20
58088;BME280;43884;49.152;8.302;2024-02-26T04:17:27;98416.22;;;10.06;75.74
58088;BME280;43884;49.152;8.302;2024-02-26T04:19:54;98415.25;;;10.25;76.20
58088;BME280;43884;49.152;8.302;2024-02-26T04:22:20;98417.84;;;10.19;75.77
58088;BME280;43884;49.152;8.302;2024-02-26T04:24:46;98420.38;;;10.50;74.77
58088;BME280;43884;49.152;8.302;2024-02-26T04:27:13;98417.50;;;10.57;75.18
58088;BME280;43884;49.152;8.302;2024-02-26T04:29:39;98420.97;;;10.40;74.71
58088;BME280;43884;49.152;8.302;2024-02-26T04:32:06;98426.75;;;11.19;72.88
58088;BME280;43884;49.152;8.302;2024-02-26T04:34:32;98421.97;;;10.92;72.69
58088;BME280;43884;49.152;8.302;2024-02-26T04:36:58;98427.50;;;10.97;72.91
58088;BME280;43884;49.152;8.302;2024-02-26T04:39:25;98424.19;;;11.12;72.06
58088;BME280;43884;49.152;8.302;2024-02-26T04:41:51;98418.97;;;11.45;70.99
58088;BME280;43884;49.152;8.302;2024-02-26T04:44:18;98430.88;;;11.05;71.62
58088;BME280;43884;49.152;8.302;2024-02-26T04:46:44;98434.66;;;11.21;72.24
58088;BME280;43884;49.152;8.302;2024-02-26T04:49:10;98438.09;;;10.99;72.48
58088;BME280;43884;49.152;8.302;2024-02-26T04:51:37;98438.31;;;10.51;73.38
58088;BME280;43884;49.152;8.302;2024-02-26T04:54:03;98442.50;;;11.17;72.58
58088;BME280;43884;49.152;8.302;2024-02-26T04:56:29;98433.78;;;11.15;71.82
58088;BME280;43884;49.152;8.302;2024-02-26T04:58:56;98442.25;;;11.19;71.30
58088;BME280;43884;49.152;8.302;2024-02-26T05:01:22;98438.03;;;11.45;70.43
58088;BME280;43884;49.152;8.302;2024-02-26T05:03:49;98444.56;;;11.10;70.96
58088;BME280;43884;49.152;8.302;2024-02-26T05:06:15;98440.09;;;11.21;71.18
58088;BME280;43884;49.152;8.302;2024-02-26T05:08:42;98449.94;;;10.93;71.66
58088;BME280;43884;49.152;8.302;2024-02-26T05:11:08;98453.97;;;10.90;72.07
58088;BME280;43884;49.152;8.302;2024-02-26T05:13:36;98458.56;;;11.19;71.71
58088;BME280;43884;49.152;8.302;2024-02-26T05:16:03;98453.28;;;11.29;71.21
58088;BME280;43884;49.152;8.302;2024-02-26T05:18:29;98458.16;;;10.52;72.56
58088;BME280;43884;49.152;8.302;2024-02-26T05:20:56;98461.03;;;10.74;73.58
58088;BME280;43884;49.152;8.302;2024-02-26T05:23:22;98459.69;;;10.88;72.65
58088;BME280;43884;49.152;8.302;2024-02-26T05:25:49;98463.50;;;11.05;72.55
58088;BME280;43884;49.152;8.302;2024-02-26T05:28:15;98466.25;;;10.93;72.47
58088;BME280;43884;49.152;8.302;2024-02-26T05:30:42;98468.28;;;11.14;72.08
58088;BME280;43884;49.152;8.302;2024-02-26T05:33:09;98470.53;;;11.35;71.52
58088;BME280;43884;49.152;8.302;2024-02-26T05:35:35;98465.84;;;10.84;72.48
58088;BME280;43884;49.152;8.302;2024-02-26T05:38:02;98473.72;;;11.14;72.76
58088;BME280;43884;49.152;8.302;2024-02-26T05:40:28;98476.53;;;11.20;72.09
58088;BME280;43884;49.152;8.302;2024-02-26T05:42:54;98481.63;;;10.70;73.12
58088;BME280;43884;49.152;8.302;2024-02-26T05:45:21;98487.00;;;10.82;73.00
58088;BME280;43884;49.152;8.302;2024-02-26T05:47:47;98486.59;;;10.90;73.68
58088;BME280;43884;49.152;8.302;2024-02-26T05:50:14;98486.44;;;11.26;71.69
58088;BME280;43884;49.152;8.302;2024-02-26T05:52:40;98491.84;;;11.09;73.08
58088;BME280;43884;49.152;8.302;2024-02-26T05:55:06;98486.34;;;11.21;72.47
58088;BME280;43884;49.152;8.302;2024-02-26T05:57:33;98485.22;;;11.51;71.52
58088;BME280;43884;49.152;8.302;2024-02-26T06:00:00;98496.78;;;11.12;72.65
58088;BME280;43884;49.152;8.302;2024-02-26T06:02:27;98497.22;;;11.21;72.92
58088;BME280;43884;49.152;8.302;2024-02-26T06:04:53;98499.72;;;11.39;71.87
58088;BME280;43884;49.152;8.302;2024-02-26T06:07:19;98502.44;;;10.93;73.16
58088;BME280;43884;49.152;8.302;2024-02-26T06:09:46;98503.00;;;10.66;74.83
58088;BME280;43884;49.152;8.302;2024-02-26T06:12:12;98509.13;;;11.02;74.30
58088;BME280;43884;49.152;8.302;2024-02-26T06:14:39;98507.75;;;11.00;73.80
58088;BME280;43884;49.152;8.302;2024-02-26T06:17:05;98515.31;;;11.61;71.88
58088;BME280;43884;49.152;8.302;2024-02-26T06:19:32;98522.06;;;11.41;71.97
58088;BME280;43884;49.152;8.302;2024-02-26T06:21:58;98529.31;;;10.89;73.30
58088;BME280;43884;49.152;8.302;2024-02-26T06:24:24;98530.09;;;11.19;73.53
58088;BME280;43884;49.152;8.302;2024-02-26T06:26:51;98538.13;;;10.97;73.90
58088;BME280;43884;49.152;8.302;2024-02-26T06:29:17;98533.06;;;11.17;73.08
58088;BME280;43884;49.152;8.302;2024-02-26T06:31:43;98536.41;;;11.37;72.37
58088;BME280;43884;49.152;8.302;2024-02-26T06:34:10;98538.38;;;11.24;72.47
58088;BME280;43884;49.152;8.302;2024-02-26T06:36:36;98544.69;;;11.13;73.80
58088;BME280;43884;49.152;8.302;2024-02-26T06:39:03;98549.00;;;11.26;72.87
58088;BME280;43884;49.152;8.302;2024-02-26T06:41:29;98547.06;;;10.80;74.52
58088;BME280;43884;49.152;8.302;2024-02-26T06:43:55;98553.84;;;11.24;74.14
58088;BME280;43884;49.152;8.302;2024-02-26T06:46:22;98549.25;;;11.24;73.83
58088;BME280;43884;49.152;8.302;2024-02-26T06:48:48;98548.00;;;10.86;73.66
58088;BME280;43884;49.152;8.302;2024-02-26T06:51:16;98549.22;;;11.07;74.33
58088;BME280;43884;49.152;8.302;2024-02-26T06:53:43;98553.28;;;10.93;74.83
58088;BME280;43884;49.152;8.302;2024-02-26T06:56:09;98547.69;;;10.99;74.88
58088;BME280;43884;49.152;8.302;2024-02-26T06:58:35;98553.97;;;11.00;73.99
58088;BME280;43884;49.152;8.302;2024-02-26T07:01:02;98562.84;;;11.24;74.34
58088;BME280;43884;49.152;8.302;2024-02-26T13:04:35;98664.53;;;18.18;52.98
58088;BME280;43884;49.152;8.302;2024-02-26T13:07:05;98683.13;;;17.86;53.33
58088;BME280;43884;49.152;8.302;2024-02-26T13:09:32;98691.13;;;17.83;53.11
58088;BME280;43884;49.152;8.302;2024-02-26T13:11:59;98678.34;;;17.63;53.47
58088;BME280;43884;49.152;8.302;2024-02-26T13:14:25;98690.81;;;18.64;53.42
58088;BME280;43884;49.152;8.302;2024-02-26T13:16:55;98684.38;;;17.65;52.51
58088;BME280;43884;49.152;8.302;2024-02-26T13:19:23;98688.41;;;17.22;53.24
58088;BME280;43884;49.152;8.302;2024-02-26T13:21:49;98693.09;;;17.77;52.84
58088;BME280;43884;49.152;8.302;2024-02-26T13:24:16;98687.97;;;17.55;53.31
58088;BME280;43884;49.152;8.302;2024-02-26T13:26:43;98693.78;;;17.53;52.47
58088;BME280;43884;49.152;8.302;2024-02-26T13:29:18;98695.69;;;18.08;53.38
58088;BME280;43884;49.152;8.302;2024-02-26T13:31:44;98699.97;;;17.80;53.86
58088;BME280;43884;49.152;8.302;2024-02-26T13:34:11;98699.69;;;17.76;52.90
58088;BME280;43884;49.152;8.302;2024-02-26T13:36:45;98705.91;;;18.37;54.62
58088;BME280;43884;49.152;8.302;2024-02-26T13:39:11;98685.75;;;18.47;51.77
58088;BME280;43884;49.152;8.302;2024-02-26T13:41:47;98693.47;;;18.75;51.49
58088;BME280;43884;49.152;8.302;2024-02-26T13:44:13;98696.78;;;18.72;51.26
58088;BME280;43884;49.152;8.302;2024-02-26T13:46:40;98700.59;;;17.61;53.51
58088;BME280;43884;49.152;8.302;2024-02-26T13:49:08;98691.84;;;18.98;50.83
58088;BME280;43884;49.152;8.302;2024-02-26T13:51:37;98698.44;;;18.43;51.37
58088;BME280;43884;49.152;8.302;2024-02-26T13:54:05;98721.38;;;17.83;53.28
58088;BME280;43884;49.152;8.302;2024-02-26T13:56:32;98705.66;;;18.34;52.25
58088;BME280;43884;49.152;8.302;2024-02-26T13:58:58;98695.84;;;18.81;51.01
58088;BME280;43884;49.152;8.302;2024-02-26T14:01:25;98691.50;;;18.75;51.11
58088;BME280;43884;49.152;8.302;2024-02-26T14:03:51;98699.66;;;18.26;51.37
58088;BME280;43884;49.152;8.302;2024-02-26T14:06:18;98693.00;;;18.33;50.57
58088;BME280;43884;49.152;8.302;2024-02-26T14:08:44;98705.84;;;18.77;51.99
58088;BME280;43884;49.152;8.302;2024-02-26T14:11:11;98702.22;;;19.06;52.21
58088;BME280;43884;49.152;8.302;2024-02-26T14:13:37;98695.06;;;18.81;50.93
58088;BME280;43884;49.152;8.302;2024-02-26T14:16:04;98691.03;;;19.46;49.31
58088;BME280;43884;49.152;8.302;2024-02-26T14:18:31;98698.41;;;19.51;50.98
58088;BME280;43884;49.152;8.302;2024-02-26T14:20:57;98700.50;;;19.16;52.14
58088;BME280;43884;49.152;8.302;2024-02-26T14:23:24;98681.34;;;18.46;50.47
58088;BME280;43884;49.152;8.302;2024-02-26T14:25:50;98681.03;;;18.48;50.74
58088;BME280;43884;49.152;8.302;2024-02-26T14:28:16;98690.97;;;18.09;51.25
58088;BME280;43884;49.152;8.302;2024-02-26T14:30:44;98698.16;;;18.05;51.79
58088;BME280;43884;49.152;8.302;2024-02-26T14:33:10;98684.47;;;18.64;50.60
58088;BME280;43884;49.152;8.302;2024-02-26T14:35:37;98692.97;;;18.38;51.14
58088;BME280;43884;49.152;8.302;2024-02-26T14:38:03;98698.66;;;18.17;52.04
58088;BME280;43884;49.152;8.302;2024-02-26T14:40:30;98710.50;;;17.62;53.11
58088;BME280;43884;49.152;8.302;2024-02-26T14:42:56;98712.44;;;17.56;52.88
58088;BME280;43884;49.152;8.302;2024-02-26T14:45:23;98715.00;;;17.87;52.44
58088;BME280;43884;49.152;8.302;2024-02-26T14:47:49;98729.78;;;18.07;53.62
58088;BME280;43884;49.152;8.302;2024-02-26T14:50:16;98722.75;;;18.31;52.32
58088;BME280;43884;49.152;8.302;2024-02-26T14:52:43;98719.09;;;18.70;51.30
58088;BME280;43884;49.152;8.302;2024-02-26T14:55:09;98726.59;;;18.30;51.67
58088;BME280;43884;49.152;8.302;2024-02-26T14:57:35;98723.47;;;18.41;50.64
58088;BME280;43884;49.152;8.302;2024-02-26T15:00:02;98721.19;;;18.84;50.17
58088;BME280;43884;49.152;8.302;2024-02-26T15:02:28;98734.09;;;18.19;51.53
58088;BME280;43884;49.152;8.302;2024-02-26T15:04:55;98715.38;;;18.21;50.29
58088;BME280;43884;49.152;8.302;2024-02-26T15:07:22;98739.50;;;18.34;51.73
58088;BME280;43884;49.152;8.302;2024-02-26T15:10:18;98741.03;;;17.55;52.22
58088;BME280;43884;49.152;8.302;2024-02-26T19:06:08;99110.81;;;13.72;68.22
58088;BME280;43884;49.152;8.302;2024-02-26T19:08:34;99089.84;;;14.69;65.39
58088;BME280;43884;49.152;8.302;2024-02-26T19:11:01;99103.09;;;14.38;65.68
58088;BME280;43884;49.152;8.302;2024-02-26T19:13:27;99098.53;;;14.83;65.24
58088;BME280;43884;49.152;8.302;2024-02-26T19:15:54;99101.34;;;14.88;64.85
58088;BME280;43884;49.152;8.302;2024-02-26T19:18:20;99122.66;;;13.78;67.29
58088;BME280;43884;49.152;8.302;2024-02-26T19:20:46;99130.00;;;13.31;68.45
58088;BME280;43884;49.152;8.302;2024-02-26T19:23:13;99129.94;;;13.90;68.79
58088;BME280;43884;49.152;8.302;2024-02-26T19:25:39;99132.47;;;13.62;68.46
58088;BME280;43884;49.152;8.302;2024-02-26T19:28:06;99144.16;;;13.16;69.82
58088;BME280;43884;49.152;8.302;2024-02-26T19:30:32;99143.47;;;13.09;70.79
58088;BME280;43884;49.152;8.302;2024-02-26T19:32:59;99152.28;;;13.28;70.56
58088;BME280;43884;49.152;8.302;2024-02-26T19:35:25;99154.75;;;13.13;70.24
58088;BME280;43884;49.152;8.302;2024-02-26T19:37:52;99154.16;;;13.40;69.79
58088;BME280;43884;49.152;8.302;2024-02-26T19:40:18;99156.59;;;13.82;69.05
58088;BME280;43884;49.152;8.302;2024-02-26T19:42:44;99160.47;;;13.28;70.06
58088;BME280;43884;49.152;8.302;2024-02-26T19:45:11;99153.03;;;13.24;69.43
58088;BME280;43884;49.152;8.302;2024-02-26T19:47:38;99163.47;;;13.27;69.59
58088;BME280;43884;49.152;8.302;2024-02-26T19:50:04;99175.16;;;13.51;69.76
58088;BME280;43884;49.152;8.302;2024-02-26T19:52:31;99169.34;;;13.07;69.05
58088;BME280;43884;49.152;8.302;2024-02-26T19:54:57;99180.44;;;13.29;69.43
58088;BME280;43884;49.152;8.302;2024-02-26T19:57:24;99189.75;;;12.92;70.56
58088;BME280;43884;49.152;8.302;2024-02-26T19:59:50;99180.16;;;12.89;71.11
58088;BME280;43884;49.152;8.302;2024-02-26T20:02:17;99189.38;;;13.53;70.55
58088;BME280;43884;49.152;8.302;2024-02-26T20:04:44;99187.41;;;13.37;69.00
58088;BME280;43884;49.152;8.302;2024-02-26T20:07:10;99184.69;;;13.95;68.82
58088;BME280;43884;49.152;8.302;2024-02-26T20:09:37;99196.81;;;13.29;70.08
58088;BME280;43884;49.152;8.302;2024-02-26T20:12:04;99206.38;;;13.55;69.67
58088;BME280;43884;49.152;8.302;2024-02-26T20:14:30;99206.47;;;13.08;70.45
58088;BME280;43884;49.152;8.302;2024-02-26T20:16:56;99220.66;;;13.34;69.96
58088;BME280;43884;49.152;8.302;2024-02-26T20:19:23;99229.59;;;13.70;69.18
58088;BME280;43884;49.152;8.302;2024-02-26T20:21:49;99224.41;;;13.85;67.70
58088;BME280;43884;49.152;8.302;2024-02-26T20:24:16;99227.47;;;13.07;69.43
58088;BME280;43884;49.152;8.302;2024-02-26T20:26:42;99234.72;;;12.77;71.14
58088;BME280;43884;49.152;8.302;2024-02-26T20:29:09;99233.81;;;13.37;69.88
58088;BME280;43884;49.152;8.302;2024-02-26T20:31:39;99235.66;;;13.07;69.73
58088;BME280;43884;49.152;8.302;2024-02-26T20:34:14;99235.94;;;13.35;70.03
58088;BME280;43884;49.152;8.302;2024-02-26T20:37:03;99236.75;;;12.94;70.50
58088;BME280;43884;49.152;8.302;2024-02-26T20:39:44;99242.19;;;12.82;70.51
58088;BME280;43884;49.152;8.302;2024-02-26T20:42:28;99244.41;;;13.21;69.90
58088;BME280;43884;49.152;8.302;2024-02-26T20:44:56;99245.28;;;12.74;70.83
58088;BME280;43884;49.152;8.302;2024-02-26T20:47:46;99243.63;;;12.61;70.86
58088;BME280;43884;49.152;8.302;2024-02-26T20:50:13;99254.41;;;12.68;70.65
58088;BME280;43884;49.152;8.302;2024-02-26T20:52:39;99254.28;;;12.62;71.31
58088;BME280;43884;49.152;8.302;2024-02-26T20:55:06;99250.38;;;12.94;70.07
58088;BME280;43884;49.152;8.302;2024-02-26T20:57:33;99262.69;;;12.61;71.02
58088;BME280;43884;49.152;8.302;2024-02-26T20:59:59;99253.81;;;12.77;70.47
58088;BME280;43884;49.152;8.302;2024-02-26T21:02:26;99248.00;;;12.74;69.58
58088;BME280;43884;49.152;8.302;2024-02-26T21:04:55;99264.03;;;12.70;70.08
58088;BME280;43884;49.152;8.302;2024-02-26T21:07:21;99262.00;;;12.89;69.53
58088;BME280;43884;49.152;8.302;2024-02-26T21:09:48;99275.22;;;12.38;71.02
58088;BME280;43884;49.152;8.302;2024-02-26T21:12:15;99266.03;;;12.75;69.74
58088;BME280;43884;49.152;8.302;2024-02-26T21:14:42;99269.56;;;13.23;68.79
58088;BME280;43884;49.152;8.302;2024-02-26T21:17:08;99270.50;;;13.53;68.03
58088;BME280;43884;49.152;8.302;2024-02-26T21:19:35;99276.59;;;13.19;68.98
58088;BME280;43884;49.152;8.302;2024-02-26T21:22:01;99273.03;;;12.95;69.89
58088;BME280;43884;49.152;8.302;2024-02-26T21:24:28;99287.56;;;12.41;70.63
58088;BME280;43884;49.152;8.302;2024-02-26T21:26:54;99283.56;;;12.67;70.31
58088;BME280;43884;49.152;8.302;2024-02-26T21:29:21;99290.09;;;13.26;69.40
58088;BME280;43884;49.152;8.302;2024-02-26T21:31:47;99289.38;;;13.30;68.60
58088;BME280;43884;49.152;8.302;2024-02-26T21:34:14;99292.34;;;13.17;68.79
58088;BME280;43884;49.152;8.302;2024-02-26T21:36:40;99294.72;;;13.25;68.55
58088;BME280;43884;49.152;8.302;2024-02-26T21:39:07;99307.31;;;13.26;68.57
58088;BME280;43884;49.152;8.302;2024-02-26T21:41:33;99304.13;;;13.29;68.27
58088;BME280;43884;49.152;8.302;2024-02-26T21:44:00;99312.78;;;12.90;68.47
58088;BME280;43884;49.152;8.302;2024-02-26T21:46:26;99319.06;;;13.03;68.66
58088;BME280;43884;49.152;8.302;2024-02-26T21:48:52;99327.00;;;13.04;69.10
58088;BME280;43884;49.152;8.302;2024-02-26T21:51:19;99335.88;;;12.76;69.32
58088;BME280;43884;49.152;8.302;2024-02-26T21:53:45;99338.47;;;12.59;69.95
58088;BME280;43884;49.152;8.302;2024-02-26T21:56:12;99338.16;;;12.79;70.05
58088;BME280;43884;49.152;8.302;2024-02-26T21:58:39;99330.69;;;13.10;68.66
58088;BME280;43884;49.152;8.302;2024-02-26T22:01:05;99340.97;;;12.72;68.25
58088;BME280;43884;49.152;8.302;2024-02-26T22:03:32;99337.69;;;13.18;67.80
58088;BME280;43884;49.152;8.302;2024-02-26T22:05:58;99344.56;;;13.09;67.65
58088;BME280;43884;49.152;8.302;2024-02-26T22:08:25;99350.59;;;12.32;68.93
58088;BME280;43884;49.152;8.302;2024-02-26T22:10:52;99361.13;;;12.83;68.60
58088;BME280;43884;49.152;8.302;2024-02-26T22:13:19;99363.19;;;12.88;68.13
58088;BME280;43884;49.152;8.302;2024-02-26T22:15:45;99369.88;;;12.00;69.87
58088;BME280;43884;49.152;8.302;2024-02-26T22:18:12;99376.22;;;12.43;69.97
58088;BME280;43884;49.152;8.302;2024-02-26T22:20:38;99371.88;;;12.23;69.98
58088;BME280;43884;49.152;8.302;2024-02-26T22:23:05;99376.28;;;12.67;69.26
58088;BME280;43884;49.152;8.302;2024-02-26T22:25:31;99375.78;;;13.25;67.83
58088;BME280;43884;49.152;8.302;2024-02-26T22:27:57;99376.94;;;13.17;66.58
58088;BME280;43884;49.152;8.302;2024-02-26T22:30:24;99392.31;;;12.14;69.48
58088;BME280;43884;49.152;8.302;2024-02-26T22:32:50;99386.19;;;12.80;68.33
58088;BME280;43884;49.152;8.302;2024-02-26T22:35:17;99394.63;;;12.48;68.15
58088;BME280;43884;49.152;8.302;2024-02-26T22:37:43;99392.47;;;12.19;69.02
58088;BME280;43884;49.152;8.302;2024-02-26T22:40:10;99397.38;;;12.29;69.98
58088;BME280;43884;49.152;8.302;2024-02-26T22:42:36;99402.59;;;13.04;67.69
58088;BME280;43884;49.152;8.302;2024-02-26T22:45:03;99407.44;;;12.90;66.83
58088;BME280;43884;49.152;8.302;2024-02-26T22:47:29;99406.78;;;12.76;67.95
58088;BME280;43884;49.152;8.302;2024-02-26T22:49:56;99401.47;;;12.50;68.81
58088;BME280;43884;49.152;8.302;2024-02-26T22:52:22;99398.31;;;13.08;67.57
58088;BME280;43884;49.152;8.302;2024-02-26T22:54:48;99405.97;;;12.75;66.87
58088;BME280;43884;49.152;8.302;2024-02-26T22:57:16;99414.44;;;12.98;66.76
58088;BME280;43884;49.152;8.302;2024-02-26T22:59:42;99411.78;;;12.36;67.17
58088;BME280;43884;49.152;8.302;2024-02-26T23:02:09;99421.38;;;11.83;70.27
58088;BME280;43884;49.152;8.302;2024-02-26T23:04:36;99415.78;;;11.78;70.62
58088;BME280;43884;49.152;8.302;2024-02-26T23:07:02;99425.81;;;11.40;71.85
58088;BME280;43884;49.152;8.302;2024-02-26T23:09:29;99421.38;;;12.20;69.46
58088;BME280;43884;49.152;8.302;2024-02-26T23:11:55;99417.28;;;12.30;69.08
58088;BME280;43884;49.152;8.302;2024-02-26T23:14:22;99420.72;;;12.56;67.89
58088;BME280;43884;49.152;8.302;2024-02-26T23:16:48;99413.91;;;12.16;68.47
58088;BME280;43884;49.152;8.302;2024-02-26T23:19:15;99421.38;;;11.64;69.79
58088;BME280;43884;49.152;8.302;2024-02-26T23:21:41;99429.22;;;11.54;70.97
58088;BME280;43884;49.152;8.302;2024-02-26T23:24:08;99428.34;;;11.97;69.92
58088;BME280;43884;49.152;8.302;2024-02-26T23:26:34;99419.44;;;12.09;68.57
58088;BME280;43884;49.152;8.302;2024-02-26T23:29:01;99433.19;;;11.77;69.62
58088;BME280;43884;49.152;8.302;2024-02-26T23:31:27;99447.00;;;11.75;70.08
58088;BME280;43884;49.152;8.302;2024-02-26T23:33:54;99447.06;;;12.13;68.57
58088;BME280;43884;49.152;8.302;2024-02-26T23:36:20;99450.75;;;11.81;68.84
58088;BME280;43884;49.152;8.302;2024-02-26T23:38:46;99458.06;;;11.99;68.92
58088;BME280;43884;49.152;8.302;2024-02-26T23:41:13;99464.69;;;11.91;68.96
58088;BME280;43884;49.152;8.302;2024-02-26T23:43:39;99481.44;;;11.44;71.00
58088;BME280;43884;49.152;8.302;2024-02-26T23:46:06;99480.09;;;11.28;71.62
58088;BME280;43884;49.152;8.302;2024-02-26T23:48:33;99480.81;;;10.91;72.48
58088;BME280;43884;49.152;8.302;2024-02-26T23:50:59;99469.78;;;12.06;70.46
58088;BME280;43884;49.152;8.302;2024-02-26T23:53:26;99474.69;;;10.96;71.93
58088;BME280;43884;49.152;8.302;2024-02-26T23:55:52;99481.00;;;11.22;73.22